Time;durP1;ratioP1;P1;durP2;ratioP2;P2;SDS_P1;SDS_P2;PMS_P1;PMS_P2;Temp;Humidity;BMP_temperature;BMP_pressure;BME280_temperature;BME280_humidity;BME280_pressure;Samples;Min_cycle;Max_cycle;Signal;HPM_P1;HPM_P2
2023/04/05 00:00:54;;;;;;;12.05;5.60;;;;;;;;;;5083142;28;20709;-46
2023/04/05 00:03:22;;;;;;;13.88;5.35;;;;;;;;;;5083936;28;20046;-44
2023/04/05 00:05:53;;;;;;;14.93;6.10;;;;;;;;;;5071841;28;20298;-43
2023/04/05 00:08:25;;;;;;;15.68;6.03;;;;;;;;;;5076457;28;20040;-44
2023/04/05 00:10:54;;;;;;;20.17;7.13;;;;;;;;;;5084648;28;20032;-44
2023/04/05 00:13:22;;;;;;;14.25;5.57;;;;;;;;;;5087381;28;20097;-44
2023/04/05 00:15:50;;;;;;;18.25;7.40;;;;;;;;;;5068265;28;20067;-44
2023/04/05 00:18:22;;;;;;;17.00;6.03;;;;;;;;;;5085902;28;20067;-46
2023/04/05 00:20:51;;;;;;;15.48;5.70;;;;;;;;;;5076719;28;20043;-47
2023/04/05 00:23:20;;;;;;;16.02;6.60;;;;;;;;;;5081434;28;20688;-45
2023/04/05 00:25:48;;;;;;;15.73;5.90;;;;;;;;;;5084673;28;20043;-46
2023/04/05 00:28:15;;;;;;;14.18;5.78;;;;;;;;;;5087031;28;20063;-45
2023/04/05 00:30:43;;;;;;;15.73;6.00;;;;;;;;;;5076255;28;20036;-43
2023/04/05 00:33:12;;;;;;;16.00;6.25;;;;;;;;;;5086634;28;20449;-44
2023/04/05 00:35:41;;;;;;;16.33;6.68;;;;;;;;;;5081560;28;20046;-45
2023/04/05 00:38:08;;;;;;;19.23;7.35;;;;;;;;;;5092341;28;20574;-45
2023/04/05 00:40:36;;;;;;;18.75;7.00;;;;;;;;;;5072660;28;20063;-44
2023/04/05 00:43:04;;;;;;;18.80;7.37;;;;;;;;;;5086993;28;20055;-43
2023/04/05 00:45:31;;;;;;;20.58;7.10;;;;;;;;;;5071206;28;20036;-44
2023/04/05 00:48:00;;;;;;;17.58;6.97;;;;;;;;;;5081930;28;20490;-44
2023/04/05 00:50:29;;;;;;;15.38;6.22;;;;;;;;;;5074428;28;20401;-45
2023/04/05 00:53:00;;;;;;;18.02;7.10;;;;;;;;;;5089784;28;20043;-45
2023/04/05 00:55:28;;;;;;;19.00;6.60;;;;;;;;;;5077709;28;20031;-47
2023/04/05 00:57:56;;;;;;;18.05;7.47;;;;;;;;;;5077725;28;20123;-45
2023/04/05 01:00:24;;;;;;;18.52;7.03;;;;;;;;;;5087504;28;20028;-45
2023/04/05 01:02:56;;;;;;;22.10;8.10;;;;;;;;;;5097598;28;20051;-44
2023/04/05 01:05:38;;;;;;;16.25;7.00;;;;;;;;;;5076931;28;20032;-44
2023/04/05 01:08:16;;;;;;;18.40;7.20;;;;;;;;;;5088638;28;20112;-44
2023/04/05 01:10:46;;;;;;;18.45;7.88;;;;;;;;;;5084873;28;20487;-44
2023/04/05 01:13:15;;;;;;;19.42;8.02;;;;;;;;;;5079325;28;20115;-46
2023/04/05 01:15:44;;;;;;;19.17;8.25;;;;;;;;;;5077689;28;20044;-45
2023/04/05 01:18:13;;;;;;;17.10;7.18;;;;;;;;;;5069136;28;20054;-44
2023/04/05 01:20:45;;;;;;;19.83;7.70;;;;;;;;;;5084269;28;20418;-45
2023/04/05 01:23:25;;;;;;;17.25;7.10;;;;;;;;;;5091173;28;20194;-44
2023/04/05 01:26:16;;;;;;;18.23;8.15;;;;;;;;;;5074415;28;20071;-48
2023/04/05 01:29:06;;;;;;;20.35;7.78;;;;;;;;;;5091815;28;20076;-45
2023/04/05 01:31:39;;;;;;;18.95;7.68;;;;;;;;;;5080919;28;20127;-44
2023/04/05 01:34:11;;;;;;;19.67;7.70;;;;;;;;;;5079406;28;20047;-44
2023/04/05 01:36:40;;;;;;;21.05;8.23;;;;;;;;;;5081350;28;20489;-45
2023/04/05 01:39:11;;;;;;;20.98;8.18;;;;;;;;;;5083952;28;20063;-44
2023/04/05 01:41:39;;;;;;;15.35;6.50;;;;;;;;;;5072149;28;20668;-44
2023/04/05 01:44:06;;;;;;;17.40;6.72;;;;;;;;;;5096138;28;20150;-44
2023/04/05 01:46:35;;;;;;;19.70;7.70;;;;;;;;;;5076839;28;20055;-43
2023/04/05 01:49:04;;;;;;;19.75;7.43;;;;;;;;;;5094544;28;20435;-44
2023/04/05 01:51:32;;;;;;;19.23;8.43;;;;;;;;;;5073184;28;20123;-46
2023/04/05 01:53:59;;;;;;;20.55;8.13;;;;;;;;;;5093246;28;20035;-44
2023/04/05 01:56:27;;;;;;;18.83;7.85;;;;;;;;;;5086426;28;20085;-46
2023/04/05 01:58:55;;;;;;;18.37;7.57;;;;;;;;;;5083184;28;20161;-44
2023/04/05 02:01:23;;;;;;;18.33;7.72;;;;;;;;;;5081328;28;20118;-44
2023/04/05 02:03:51;;;;;;;20.58;7.72;;;;;;;;;;5078500;28;20122;-52
2023/04/05 02:06:20;;;;;;;18.45;7.30;;;;;;;;;;5088093;28;20645;-43
2023/04/05 02:08:48;;;;;;;15.50;6.43;;;;;;;;;;5089258;28;20137;-45
2023/04/05 02:11:16;;;;;;;20.93;8.13;;;;;;;;;;5087316;28;20031;-44
2023/04/05 02:13:43;;;;;;;18.92;7.68;;;;;;;;;;5079888;28;20040;-43
2023/04/05 02:16:13;;;;;;;15.38;7.35;;;;;;;;;;5074673;28;20035;-45
2023/04/05 02:18:42;;;;;;;20.25;7.70;;;;;;;;;;5079717;28;20669;-44
2023/04/05 02:21:10;;;;;;;20.25;8.70;;;;;;;;;;5087340;28;20528;-44
2023/04/05 02:23:39;;;;;;;20.03;6.77;;;;;;;;;;5097146;27;20151;-44
2023/04/05 02:26:07;;;;;;;19.30;8.00;;;;;;;;;;5076684;28;20039;-47
2023/04/05 02:28:34;;;;;;;18.35;7.32;;;;;;;;;;5083862;28;20068;-44
2023/04/05 02:31:02;;;;;;;17.75;7.22;;;;;;;;;;5076630;28;20123;-44
2023/04/05 02:33:30;;;;;;;19.23;7.68;;;;;;;;;;5082140;28;20036;-43
2023/04/05 02:35:57;;;;;;;19.47;7.60;;;;;;;;;;5073743;28;20088;-44
2023/04/05 02:38:25;;;;;;;18.20;7.47;;;;;;;;;;5078219;28;20032;-44
2023/04/05 02:40:54;;;;;;;16.83;7.80;;;;;;;;;;5085691;28;20085;-45
2023/04/05 02:43:22;;;;;;;22.42;8.43;;;;;;;;;;5092850;28;20040;-43
2023/04/05 02:45:49;;;;;;;18.77;8.38;;;;;;;;;;5077059;28;20064;-45
2023/04/05 02:48:17;;;;;;;19.53;8.13;;;;;;;;;;5079311;28;20039;-44
2023/04/05 02:50:47;;;;;;;18.13;7.57;;;;;;;;;;5072933;28;20122;-47
2023/04/05 02:53:15;;;;;;;20.55;8.35;;;;;;;;;;5059398;28;20127;-47
2023/04/05 02:55:43;;;;;;;21.30;8.02;;;;;;;;;;5096098;27;20068;-46
2023/04/05 02:58:13;;;;;;;27.10;9.10;;;;;;;;;;5094943;27;20050;-46
2023/04/05 03:00:40;;;;;;;18.23;8.50;;;;;;;;;;5077590;28;20132;-43
2023/04/05 03:03:09;;;;;;;19.80;8.70;;;;;;;;;;5082455;28;20043;-47
2023/04/05 03:05:37;;;;;;;21.30;8.18;;;;;;;;;;5069098;28;20115;-45
2023/04/05 03:08:05;;;;;;;30.70;9.57;;;;;;;;;;5071715;28;20039;-43
2023/04/05 03:10:34;;;;;;;21.63;8.98;;;;;;;;;;5082766;28;20051;-44
2023/04/05 03:13:02;;;;;;;20.70;9.40;;;;;;;;;;5082473;28;21822;-45
2023/04/05 03:15:33;;;;;;;20.10;8.57;;;;;;;;;;5079151;28;20402;-44
2023/04/05 03:18:01;;;;;;;20.85;9.07;;;;;;;;;;5059735;28;20040;-44
2023/04/05 03:20:29;;;;;;;20.50;9.00;;;;;;;;;;5085935;28;20333;-44
2023/04/05 03:22:56;;;;;;;22.20;8.68;;;;;;;;;;5073453;28;20052;-45
2023/04/05 03:25:24;;;;;;;21.50;8.67;;;;;;;;;;5087300;28;20129;-48
2023/04/05 03:27:52;;;;;;;20.52;8.43;;;;;;;;;;5090535;28;20104;-45
2023/04/05 03:30:20;;;;;;;22.98;9.80;;;;;;;;;;5073476;28;20101;-44
2023/04/05 03:32:49;;;;;;;20.40;8.02;;;;;;;;;;5070849;28;20448;-43
2023/04/05 03:35:18;;;;;;;22.90;9.50;;;;;;;;;;5086711;28;20518;-44
2023/04/05 03:37:45;;;;;;;26.00;9.83;;;;;;;;;;5079941;28;20237;-44
2023/04/05 03:40:13;;;;;;;22.65;9.00;;;;;;;;;;5074998;28;20442;-44
2023/04/05 03:42:43;;;;;;;21.95;9.73;;;;;;;;;;5076630;28;20036;-44
2023/04/05 03:45:11;;;;;;;24.90;9.70;;;;;;;;;;5086966;28;20040;-44
2023/04/05 03:47:43;;;;;;;25.42;10.27;;;;;;;;;;5071823;28;20813;-44
2023/04/05 03:50:12;;;;;;;24.50;10.10;;;;;;;;;;5078699;28;20118;-44
2023/04/05 03:52:39;;;;;;;23.80;8.60;;;;;;;;;;5075690;28;20120;-44
2023/04/05 03:55:08;;;;;;;23.80;9.75;;;;;;;;;;5086434;28;20031;-44
2023/04/05 03:57:37;;;;;;;21.48;8.60;;;;;;;;;;5095021;28;20066;-44
2023/04/05 04:00:13;;;;;;;28.60;9.90;;;;;;;;;;5060888;28;20068;-47
2023/04/05 04:02:42;;;;;;;24.03;9.93;;;;;;;;;;5085115;28;20035;-43
2023/04/05 04:05:10;;;;;;;28.20;11.23;;;;;;;;;;5089575;28;20681;-48
2023/04/05 04:07:41;;;;;;;25.02;10.40;;;;;;;;;;5094585;27;20074;-44
2023/04/05 04:10:10;;;;;;;23.70;9.60;;;;;;;;;;5104920;27;20097;-43
2023/04/05 04:12:38;;;;;;;25.83;10.75;;;;;;;;;;5080597;28;20131;-44
2023/04/05 04:15:06;;;;;;;24.93;9.97;;;;;;;;;;5087953;28;20043;-44
2023/04/05 04:17:35;;;;;;;24.77;10.90;;;;;;;;;;5090886;28;20035;-44
2023/04/05 04:20:06;;;;;;;30.35;11.63;;;;;;;;;;5088403;28;20643;-44
2023/04/05 04:22:37;;;;;;;21.60;9.95;;;;;;;;;;5086078;28;20093;-43
2023/04/05 04:25:08;;;;;;;21.83;10.05;;;;;;;;;;5089598;28;20545;-44
2023/04/05 04:27:38;;;;;;;20.90;9.80;;;;;;;;;;5075091;28;20582;-46
2023/04/05 04:30:08;;;;;;;22.85;9.98;;;;;;;;;;5072772;28;20144;-45
2023/04/05 04:32:52;;;;;;;23.75;10.32;;;;;;;;;;5081364;28;20496;-46
2023/04/05 04:35:23;;;;;;;24.00;10.70;;;;;;;;;;5087135;28;20562;-43
2023/04/05 04:37:53;;;;;;;26.08;10.15;;;;;;;;;;5084998;28;20059;-44
2023/04/05 04:40:24;;;;;;;25.57;10.23;;;;;;;;;;5091809;28;20132;-44
2023/04/05 04:42:53;;;;;;;25.23;10.60;;;;;;;;;;5085183;28;20212;-43
2023/04/05 04:45:21;;;;;;;30.92;11.15;;;;;;;;;;5085285;28;20043;-45
2023/04/05 04:47:52;;;;;;;31.38;11.45;;;;;;;;;;5083630;28;20159;-47
2023/04/05 04:50:21;;;;;;;27.83;11.20;;;;;;;;;;5080531;28;20040;-43
2023/04/05 04:52:49;;;;;;;26.87;12.30;;;;;;;;;;5090238;28;20040;-46
2023/04/05 04:55:17;;;;;;;32.10;11.45;;;;;;;;;;5071192;28;20416;-43
2023/04/05 04:57:46;;;;;;;26.38;9.98;;;;;;;;;;5089231;28;20127;-44
2023/04/05 05:00:16;;;;;;;27.50;10.88;;;;;;;;;;5083318;28;20126;-44
2023/04/05 05:02:44;;;;;;;26.45;10.20;;;;;;;;;;5088178;28;20113;-44
2023/04/05 05:05:12;;;;;;;31.53;11.43;;;;;;;;;;5085945;28;20039;-44
2023/04/05 05:07:40;;;;;;;27.02;10.38;;;;;;;;;;5081664;28;20712;-44
2023/04/05 05:10:09;;;;;;;22.98;10.05;;;;;;;;;;5082783;28;20044;-46
2023/04/05 05:12:37;;;;;;;22.88;11.13;;;;;;;;;;5093911;28;20044;-43
2023/04/05 05:15:06;;;;;;;27.20;10.38;;;;;;;;;;5080986;28;20100;-43
2023/04/05 05:17:34;;;;;;;26.10;10.60;;;;;;;;;;5095385;28;20096;-45
2023/04/05 05:20:09;;;;;;;30.88;11.50;;;;;;;;;;5078672;28;20063;-43
2023/04/05 05:22:38;;;;;;;22.73;9.70;;;;;;;;;;5086854;28;20062;-44
2023/04/05 05:25:07;;;;;;;29.27;11.32;;;;;;;;;;5078048;28;20104;-45
2023/04/05 05:27:35;;;;;;;24.38;10.50;;;;;;;;;;5088451;28;20043;-46
2023/04/05 05:30:03;;;;;;;29.13;11.20;;;;;;;;;;5077047;28;20092;-46
2023/04/05 05:32:32;;;;;;;26.60;10.98;;;;;;;;;;5075821;28;20035;-45
2023/04/05 05:35:00;;;;;;;31.38;11.57;;;;;;;;;;5087049;28;20449;-44
2023/04/05 05:37:32;;;;;;;27.35;11.25;;;;;;;;;;5078016;28;20127;-45
2023/04/05 05:39:59;;;;;;;27.48;11.55;;;;;;;;;;5082275;28;20043;-46
2023/04/05 05:42:27;;;;;;;27.80;11.83;;;;;;;;;;5088704;28;20040;-46
2023/04/05 05:44:55;;;;;;;27.38;12.77;;;;;;;;;;5087912;28;21612;-45
2023/04/05 05:47:23;;;;;;;23.17;11.60;;;;;;;;;;5085762;28;20147;-45
2023/04/05 05:49:52;;;;;;;27.95;11.88;;;;;;;;;;5092534;28;20044;-46
2023/04/05 05:52:20;;;;;;;32.60;11.82;;;;;;;;;;5079970;28;20043;-43
2023/04/05 05:54:48;;;;;;;29.17;12.10;;;;;;;;;;5076637;28;20055;-43
2023/04/05 05:57:16;;;;;;;28.05;11.63;;;;;;;;;;5073727;28;20494;-45
2023/04/05 05:59:44;;;;;;;27.20;10.77;;;;;;;;;;5085285;28;20035;-45
2023/04/05 06:02:12;;;;;;;26.38;11.85;;;;;;;;;;5084378;28;20089;-44
2023/04/05 06:04:39;;;;;;;29.00;11.85;;;;;;;;;;5071046;28;20601;-46
2023/04/05 06:07:09;;;;;;;28.40;11.03;;;;;;;;;;5087724;28;20481;-46
2023/04/05 06:09:37;;;;;;;30.33;12.40;;;;;;;;;;5086982;28;20115;-45
2023/04/05 06:12:05;;;;;;;26.52;10.55;;;;;;;;;;5087382;28;20073;-45
2023/04/05 06:14:33;;;;;;;31.90;12.52;;;;;;;;;;5081936;28;20028;-44
2023/04/05 06:17:01;;;;;;;25.40;11.77;;;;;;;;;;5077448;28;20036;-45
2023/04/05 06:19:28;;;;;;;24.50;11.10;;;;;;;;;;5067486;28;20453;-45
2023/04/05 06:21:56;;;;;;;28.65;11.50;;;;;;;;;;5073519;28;20135;-45
2023/04/05 06:24:25;;;;;;;28.13;11.05;;;;;;;;;;5077178;28;20032;-44
2023/04/05 06:26:52;;;;;;;27.50;11.10;;;;;;;;;;5081727;28;20052;-48
2023/04/05 06:29:20;;;;;;;26.98;11.45;;;;;;;;;;5081993;28;21280;-45
2023/04/05 06:31:48;;;;;;;29.67;11.67;;;;;;;;;;5088489;28;20089;-43
2023/04/05 06:34:15;;;;;;;32.45;12.32;;;;;;;;;;5081922;28;20409;-43
2023/04/05 06:36:43;;;;;;;28.48;11.43;;;;;;;;;;5076593;28;20076;-46
2023/04/05 06:39:11;;;;;;;28.38;11.15;;;;;;;;;;5080819;28;20047;-44
2023/04/05 06:41:40;;;;;;;32.70;11.27;;;;;;;;;;5078247;28;20039;-44
2023/04/05 06:44:08;;;;;;;25.20;10.47;;;;;;;;;;5084378;28;20092;-44
2023/04/05 06:46:35;;;;;;;25.13;10.50;;;;;;;;;;5092341;28;20373;-44
2023/04/05 06:49:03;;;;;;;26.58;10.85;;;;;;;;;;5081134;28;20039;-45
2023/04/05 06:51:31;;;;;;;26.73;10.68;;;;;;;;;;5087930;28;20097;-44
2023/04/05 06:53:58;;;;;;;29.27;10.02;;;;;;;;;;5082163;28;20050;-44
2023/04/05 06:56:27;;;;;;;22.80;10.47;;;;;;;;;;5085163;28;20063;-44
2023/04/05 06:58:58;;;;;;;27.92;10.85;;;;;;;;;;5080446;28;20047;-46
2023/04/05 07:01:26;;;;;;;27.15;10.65;;;;;;;;;;5084417;28;20032;-44
2023/04/05 07:03:53;;;;;;;25.50;10.15;;;;;;;;;;5080207;28;20039;-44
2023/04/05 07:06:22;;;;;;;25.70;11.18;;;;;;;;;;5076717;28;20043;-44
2023/04/05 07:08:51;;;;;;;22.70;10.10;;;;;;;;;;5080772;28;20088;-45
2023/04/05 07:11:20;;;;;;;23.42;9.93;;;;;;;;;;5086053;28;20615;-45
2023/04/05 07:13:48;;;;;;;24.55;9.90;;;;;;;;;;5085181;28;20048;-44
2023/04/05 07:16:21;;;;;;;24.45;10.02;;;;;;;;;;5074431;28;20081;-45
2023/04/05 07:18:50;;;;;;;27.58;10.27;;;;;;;;;;5091783;28;20039;-44
2023/04/05 07:21:17;;;;;;;24.07;9.87;;;;;;;;;;5074419;28;20458;-45
2023/04/05 07:23:45;;;;;;;24.05;10.00;;;;;;;;;;5091309;28;20035;-44
2023/04/05 07:26:13;;;;;;;26.80;11.05;;;;;;;;;;5087757;28;20043;-45
2023/04/05 07:28:41;;;;;;;24.27;9.40;;;;;;;;;;5089242;28;20032;-44
2023/04/05 07:31:09;;;;;;;23.70;9.95;;;;;;;;;;5068716;28;20101;-45
2023/04/05 07:33:38;;;;;;;23.90;9.50;;;;;;;;;;5076537;28;20047;-49
2023/04/05 07:36:06;;;;;;;23.23;9.35;;;;;;;;;;5074181;28;20482;-44
2023/04/05 07:38:34;;;;;;;24.30;10.30;;;;;;;;;;5083060;28;20104;-44
2023/04/05 07:41:02;;;;;;;20.75;9.02;;;;;;;;;;5068788;28;20052;-45
2023/04/05 07:43:30;;;;;;;22.52;9.93;;;;;;;;;;5092146;28;20043;-44
2023/04/05 07:46:03;;;;;;;25.90;9.33;;;;;;;;;;5084338;28;20093;-44
2023/04/05 07:48:31;;;;;;;22.70;9.00;;;;;;;;;;5062276;28;20067;-45
2023/04/05 07:51:04;;;;;;;23.27;8.98;;;;;;;;;;5087877;28;20060;-48
2023/04/05 07:53:32;;;;;;;23.38;9.63;;;;;;;;;;5078214;28;20897;-46
2023/04/05 07:56:03;;;;;;;23.35;10.40;;;;;;;;;;5088250;28;20100;-47
2023/04/05 07:58:31;;;;;;;27.50;9.30;;;;;;;;;;5077600;28;20519;-46
2023/04/05 08:01:10;;;;;;;20.90;10.10;;;;;;;;;;4774509;28;10000931;-45
2023/04/05 08:03:38;;;;;;;23.67;9.60;;;;;;;;;;5085659;28;20235;-45
2023/04/05 08:06:11;;;;;;;21.75;9.55;;;;;;;;;;5074650;28;20810;-44
2023/04/05 08:08:39;;;;;;;23.23;9.43;;;;;;;;;;5081067;28;20076;-45
2023/04/05 08:11:07;;;;;;;22.60;9.07;;;;;;;;;;5076313;28;20059;-45
2023/04/05 08:13:35;;;;;;;22.80;9.95;;;;;;;;;;5078087;28;20039;-44
2023/04/05 08:16:03;;;;;;;22.70;9.60;;;;;;;;;;5085872;28;20104;-44
2023/04/05 08:18:31;;;;;;;21.90;9.90;;;;;;;;;;5076695;28;20039;-46
2023/04/05 08:20:58;;;;;;;22.25;9.18;;;;;;;;;;5084085;28;20039;-46
2023/04/05 08:23:27;;;;;;;23.00;9.70;;;;;;;;;;5072746;28;20047;-45
2023/04/05 08:25:55;;;;;;;20.43;9.30;;;;;;;;;;4731065;28;10000210;-45
2023/04/05 08:28:23;;;;;;;24.25;9.35;;;;;;;;;;5060237;28;20071;-44
2023/04/05 08:30:53;;;;;;;23.45;9.40;;;;;;;;;;5059798;28;20820;-44
2023/04/05 08:33:20;;;;;;;22.63;8.35;;;;;;;;;;5075131;28;20089;-44
2023/04/05 08:35:48;;;;;;;17.65;7.95;;;;;;;;;;5070105;28;20506;-44
2023/04/05 08:38:16;;;;;;;21.00;9.10;;;;;;;;;;5064185;28;20048;-45
2023/04/05 08:40:46;;;;;;;23.58;9.18;;;;;;;;;;5061051;28;20080;-45
2023/04/05 08:43:17;;;;;;;25.65;9.23;;;;;;;;;;5072636;28;20043;-47
2023/04/05 08:45:48;;;;;;;25.20;9.60;;;;;;;;;;5071242;28;20040;-45
2023/04/05 08:48:17;;;;;;;18.83;7.70;;;;;;;;;;5069235;28;20137;-47
2023/04/05 08:50:50;;;;;;;21.10;8.50;;;;;;;;;;5056600;28;20032;-46
2023/04/05 08:53:18;;;;;;;19.35;8.15;;;;;;;;;;5072803;28;20047;-45
2023/04/05 08:55:48;;;;;;;21.55;8.27;;;;;;;;;;5074159;28;20568;-45
2023/04/05 08:58:16;;;;;;;23.73;8.48;;;;;;;;;;5064275;28;20081;-44
2023/04/05 09:00:44;;;;;;;22.63;9.13;;;;;;;;;;5063345;28;20509;-44
2023/04/05 09:03:15;;;;;;;20.97;8.83;;;;;;;;;;5079278;28;20502;-45
2023/04/05 09:05:44;;;;;;;21.20;8.80;;;;;;;;;;5061731;28;20071;-47
2023/04/05 09:08:12;;;;;;;23.70;9.13;;;;;;;;;;5065123;28;20097;-46
2023/04/05 09:10:40;;;;;;;25.00;8.05;;;;;;;;;;5072744;28;20069;-44
2023/04/05 09:13:10;;;;;;;28.52;9.55;;;;;;;;;;5073263;28;20144;-46
2023/04/05 09:15:38;;;;;;;22.87;9.20;;;;;;;;;;5070621;28;20047;-45
2023/04/05 09:18:06;;;;;;;24.38;9.65;;;;;;;;;;5062253;28;20498;-44
2023/04/05 09:20:50;;;;;;;24.02;9.32;;;;;;;;;;5071392;28;20744;-45
2023/04/05 09:23:18;;;;;;;21.58;8.85;;;;;;;;;;5074642;28;20051;-46
2023/04/05 09:25:46;;;;;;;21.92;8.93;;;;;;;;;;5075862;28;20033;-46
2023/04/05 09:28:16;;;;;;;21.27;9.47;;;;;;;;;;5067484;28;20050;-49
2023/04/05 09:30:45;;;;;;;20.48;8.27;;;;;;;;;;5089887;27;20709;-48
2023/04/05 09:33:16;;;;;;;20.05;8.65;;;;;;;;;;5074080;28;20040;-45
2023/04/05 09:35:44;;;;;;;21.48;8.82;;;;;;;;;;5067192;28;20484;-47
2023/04/05 09:38:11;;;;;;;24.98;9.82;;;;;;;;;;5067968;28;20056;-45
2023/04/05 09:40:43;;;;;;;21.40;9.07;;;;;;;;;;5062840;28;20421;-47
2023/04/05 09:43:11;;;;;;;21.38;7.80;;;;;;;;;;5075437;28;20063;-46
2023/04/05 09:45:41;;;;;;;21.73;8.82;;;;;;;;;;5067909;28;20123;-47
2023/04/05 09:48:09;;;;;;;19.13;7.90;;;;;;;;;;5068759;28;20435;-44
2023/04/05 09:50:38;;;;;;;20.40;7.13;;;;;;;;;;5051068;28;20517;-47
2023/04/05 09:53:06;;;;;;;20.93;9.37;;;;;;;;;;5076007;28;20520;-44
2023/04/05 09:55:34;;;;;;;19.90;8.32;;;;;;;;;;5067740;28;20485;-44
2023/04/05 09:58:02;;;;;;;26.60;9.43;;;;;;;;;;5071455;28;20039;-46
2023/04/05 10:00:31;;;;;;;26.00;9.73;;;;;;;;;;5060871;28;21490;-46
2023/04/05 10:03:00;;;;;;;26.50;10.20;;;;;;;;;;5076228;28;20047;-47
2023/04/05 10:05:28;;;;;;;23.27;9.20;;;;;;;;;;5068732;28;20558;-46
2023/04/05 10:07:56;;;;;;;19.60;7.90;;;;;;;;;;5072771;28;20379;-44
2023/04/05 10:10:25;;;;;;;22.63;9.35;;;;;;;;;;5064512;28;20652;-47
2023/04/05 10:12:53;;;;;;;20.25;9.27;;;;;;;;;;5076533;28;20055;-46
2023/04/05 10:15:23;;;;;;;23.80;9.35;;;;;;;;;;5057635;28;20031;-43
2023/04/05 10:17:54;;;;;;;23.83;9.37;;;;;;;;;;5073955;28;20112;-45
2023/04/05 10:20:24;;;;;;;17.95;7.13;;;;;;;;;;5059270;28;20481;-47
2023/04/05 10:22:59;;;;;;;22.58;8.70;;;;;;;;;;5072016;28;20055;-44
2023/04/05 10:25:30;;;;;;;23.85;9.05;;;;;;;;;;5076665;28;20032;-45
2023/04/05 10:28:03;;;;;;;27.47;9.60;;;;;;;;;;4358201;28;10000322;-45
2023/04/05 10:30:36;;;;;;;16.03;6.13;;;;;;;;;;5055187;28;20386;-46
2023/04/05 10:33:10;;;;;;;21.23;9.05;;;;;;;;;;5070362;28;20105;-45
2023/04/05 10:35:43;;;;;;;29.83;9.60;;;;;;;;;;5070352;28;20043;-44
2023/04/05 10:38:13;;;;;;;26.92;10.02;;;;;;;;;;5069419;28;20050;-44
2023/04/05 10:40:43;;;;;;;25.73;10.40;;;;;;;;;;5062307;28;20047;-46
2023/04/05 10:43:15;;;;;;;26.70;10.93;;;;;;;;;;5076696;28;20047;-48
2023/04/05 10:45:43;;;;;;;27.40;11.07;;;;;;;;;;5069025;28;20824;-46
2023/04/05 10:48:16;;;;;;;25.10;10.40;;;;;;;;;;5068562;28;20035;-46
2023/04/05 10:50:47;;;;;;;28.05;11.50;;;;;;;;;;5057010;28;20044;-44
2023/04/05 10:53:16;;;;;;;26.15;10.70;;;;;;;;;;5068994;28;20495;-45
2023/04/05 10:55:45;;;;;;;31.27;12.20;;;;;;;;;;5073821;28;20039;-46
2023/04/05 10:58:14;;;;;;;26.13;10.70;;;;;;;;;;5067947;28;20032;-45
2023/04/05 11:00:41;;;;;;;27.23;10.73;;;;;;;;;;5056439;28;20047;-46
2023/04/05 11:03:09;;;;;;;26.23;11.80;;;;;;;;;;5070392;28;20044;-45
2023/04/05 11:05:38;;;;;;;28.45;11.20;;;;;;;;;;5061636;28;20324;-45
2023/04/05 11:08:08;;;;;;;26.93;11.43;;;;;;;;;;5066160;28;20862;-44
2023/04/05 11:10:37;;;;;;;20.67;9.68;;;;;;;;;;5059879;28;20050;-45
2023/04/05 11:13:06;;;;;;;22.75;9.30;;;;;;;;;;5065271;27;20500;-43
2023/04/05 11:15:34;;;;;;;23.33;8.20;;;;;;;;;;5071475;28;20047;-43
2023/04/05 11:18:04;;;;;;;19.95;7.13;;;;;;;;;;5071573;28;20097;-44
2023/04/05 11:20:45;;;;;;;18.13;6.87;;;;;;;;;;5049391;28;20043;-44
2023/04/05 11:23:17;;;;;;;15.55;6.18;;;;;;;;;;5067838;28;20044;-45
2023/04/05 11:25:50;;;;;;;13.82;5.85;;;;;;;;;;4719807;27;10000261;-45
2023/04/05 11:28:24;;;;;;;16.73;5.25;;;;;;;;;;5066372;28;20048;-47
2023/04/05 11:30:52;;;;;;;13.17;5.07;;;;;;;;;;5061903;28;20886;-46
2023/04/05 11:33:54;;;;;;;12.32;4.32;;;;;;;;;;5073254;28;20055;-45
2023/04/05 11:36:37;;;;;;;13.93;5.45;;;;;;;;;;5060690;28;20769;-47
2023/04/05 11:39:26;;;;;;;14.52;4.63;;;;;;;;;;5056266;28;20051;-44
2023/04/05 11:41:55;;;;;;;15.77;6.63;;;;;;;;;;5068083;28;20134;-44
2023/04/05 11:44:23;;;;;;;14.07;5.70;;;;;;;;;;5062148;28;20128;-43
2023/04/05 11:46:53;;;;;;;13.38;4.68;;;;;;;;;;5067701;28;20622;-44
2023/04/05 11:49:25;;;;;;;12.68;5.82;;;;;;;;;;5060754;28;20401;-46
2023/04/05 11:51:53;;;;;;;12.80;5.07;;;;;;;;;;5065205;28;20112;-43
2023/04/05 11:54:32;;;;;;;9.60;3.42;;;;;;;;;;5070193;28;20740;-44
2023/04/05 11:57:00;;;;;;;11.27;4.63;;;;;;;;;;5059257;28;20126;-45
2023/04/05 11:59:32;;;;;;;10.52;4.00;;;;;;;;;;4703952;28;9999685;-43
2023/04/05 12:02:01;;;;;;;13.23;5.05;;;;;;;;;;5061003;28;20050;-46
2023/04/05 12:04:28;;;;;;;11.83;4.87;;;;;;;;;;5056373;28;20476;-44
2023/04/05 12:07:09;;;;;;;11.50;3.83;;;;;;;;;;5066480;28;20043;-44
2023/04/05 12:09:55;;;;;;;15.63;5.85;;;;;;;;;;5062907;28;20047;-44
2023/04/05 12:12:22;;;;;;;11.23;4.18;;;;;;;;;;5066039;28;20081;-44
2023/04/05 12:14:52;;;;;;;15.32;5.63;;;;;;;;;;5065947;28;20031;-44
2023/04/05 12:17:36;;;;;;;15.83;6.30;;;;;;;;;;5061347;28;20085;-43
2023/04/05 12:20:05;;;;;;;14.75;6.00;;;;;;;;;;5064470;28;20451;-45
2023/04/05 12:22:33;;;;;;;9.98;3.85;;;;;;;;;;5073789;28;20922;-44
2023/04/05 12:25:02;;;;;;;14.50;5.68;;;;;;;;;;5075861;28;20039;-45
2023/04/05 12:27:30;;;;;;;17.20;6.85;;;;;;;;;;5068219;28;20092;-47
2023/04/05 12:30:08;;;;;;;17.03;6.00;;;;;;;;;;5068053;28;20051;-46
2023/04/05 12:32:37;;;;;;;12.93;4.63;;;;;;;;;;5066697;28;20417;-44
2023/04/05 12:35:10;;;;;;;7.72;3.10;;;;;;;;;;5073351;28;20044;-45
2023/04/05 12:37:38;;;;;;;9.18;3.15;;;;;;;;;;5070490;28;20040;-44
2023/04/05 12:40:08;;;;;;;13.23;5.00;;;;;;;;;;5068765;28;20059;-45
2023/04/05 12:42:37;;;;;;;12.50;5.00;;;;;;;;;;5071423;28;20475;-45
2023/04/05 12:45:06;;;;;;;14.55;5.25;;;;;;;;;;5071361;28;20520;-45
2023/04/05 12:47:34;;;;;;;10.20;3.78;;;;;;;;;;5071942;28;20027;-43
2023/04/05 12:50:12;;;;;;;12.43;4.70;;;;;;;;;;5064309;28;20039;-43
2023/04/05 12:52:51;;;;;;;12.30;3.90;;;;;;;;;;5074845;28;20063;-45
2023/04/05 12:55:21;;;;;;;11.70;4.50;;;;;;;;;;5062697;28;20089;-44
2023/04/05 12:57:49;;;;;;;13.55;4.47;;;;;;;;;;5074952;28;20138;-43
2023/04/05 13:00:17;;;;;;;13.30;5.53;;;;;;;;;;5063564;28;20043;-45
2023/04/05 13:02:49;;;;;;;12.23;4.38;;;;;;;;;;5079208;28;20120;-44
2023/04/05 13:05:17;;;;;;;12.00;4.50;;;;;;;;;;5062845;28;20043;-43
2023/04/05 13:07:45;;;;;;;9.67;3.90;;;;;;;;;;5086211;28;20058;-47
2023/04/05 13:10:13;;;;;;;11.55;4.53;;;;;;;;;;5087362;28;20081;-46
2023/04/05 13:12:43;;;;;;;10.50;3.88;;;;;;;;;;5092415;28;20070;-45
2023/04/05 13:15:10;;;;;;;8.13;3.30;;;;;;;;;;5079718;28;20040;-44
2023/04/05 13:17:39;;;;;;;10.60;4.13;;;;;;;;;;5088877;28;20047;-44
2023/04/05 13:20:08;;;;;;;11.37;4.60;;;;;;;;;;5074611;28;20047;-44
2023/04/05 13:22:36;;;;;;;11.43;4.95;;;;;;;;;;5088004;28;20424;-44
2023/04/05 13:25:04;;;;;;;11.65;4.30;;;;;;;;;;5080429;28;20500;-45
2023/04/05 13:27:31;;;;;;;13.27;5.88;;;;;;;;;;5077027;28;20039;-45
2023/04/05 13:30:02;;;;;;;11.82;4.78;;;;;;;;;;5085442;28;20404;-45
2023/04/05 13:32:30;;;;;;;13.13;4.97;;;;;;;;;;5079003;28;20729;-44
2023/04/05 13:34:58;;;;;;;13.88;4.65;;;;;;;;;;5087074;27;20549;-45
2023/04/05 13:37:26;;;;;;;14.30;5.22;;;;;;;;;;5082453;28;20046;-45
2023/04/05 13:39:53;;;;;;;12.43;4.53;;;;;;;;;;5093182;28;20045;-43
2023/04/05 13:42:22;;;;;;;10.02;3.85;;;;;;;;;;5086326;28;20111;-45
2023/04/05 13:44:50;;;;;;;14.83;4.37;;;;;;;;;;5074899;28;20417;-46
2023/04/05 13:47:19;;;;;;;13.20;4.72;;;;;;;;;;5080350;28;20497;-44
2023/04/05 13:49:47;;;;;;;11.77;4.78;;;;;;;;;;5080623;28;20104;-45
2023/04/05 13:52:15;;;;;;;13.40;5.65;;;;;;;;;;5081094;28;20034;-43
2023/04/05 13:54:43;;;;;;;14.35;5.50;;;;;;;;;;5088827;28;21143;-47
2023/04/05 13:57:13;;;;;;;13.17;4.90;;;;;;;;;;5084446;28;20096;-44
2023/04/05 13:59:41;;;;;;;13.95;5.30;;;;;;;;;;4363728;28;10020700;-43
2023/04/05 14:02:10;;;;;;;10.50;4.45;;;;;;;;;;5069043;27;20623;-45
2023/04/05 14:04:39;;;;;;;14.43;5.97;;;;;;;;;;5068071;28;20062;-45
2023/04/05 14:07:08;;;;;;;14.63;5.20;;;;;;;;;;5067305;28;20086;-45
2023/04/05 14:09:35;;;;;;;11.63;5.53;;;;;;;;;;5065682;28;20436;-46
2023/04/05 14:12:03;;;;;;;13.85;6.05;;;;;;;;;;5045599;28;20057;-44
2023/04/05 14:14:31;;;;;;;16.58;6.55;;;;;;;;;;5074954;28;20039;-45
2023/04/05 14:17:00;;;;;;;18.27;6.70;;;;;;;;;;5050726;27;20067;-45
2023/04/05 14:19:27;;;;;;;15.02;5.97;;;;;;;;;;5057019;28;20040;-45
2023/04/05 14:21:57;;;;;;;16.00;6.75;;;;;;;;;;5074524;28;20042;-44
2023/04/05 14:24:25;;;;;;;17.73;6.93;;;;;;;;;;5069502;28;20044;-45
2023/04/05 14:26:52;;;;;;;18.80;6.90;;;;;;;;;;5064065;28;20489;-45
2023/04/05 14:29:20;;;;;;;14.67;6.13;;;;;;;;;;5056474;28;20558;-44
2023/04/05 14:31:48;;;;;;;17.45;6.53;;;;;;;;;;5073378;28;20614;-44
2023/04/05 14:34:18;;;;;;;17.25;7.50;;;;;;;;;;5075151;28;20035;-45
2023/04/05 14:36:46;;;;;;;14.00;6.35;;;;;;;;;;5064729;28;20058;-45
2023/04/05 14:39:16;;;;;;;14.80;5.72;;;;;;;;;;5062823;28;20046;-47